Coronel Hilario Lagos, Argentina
Current Conditions -  °F | °C
As of 5:00 AM on Monday 24 Nov 2014 (Local Time) from SAOC Reporting Station
Scattered Clouds Scattered Clouds  
Wind Chill: 64°   Ceiling: Unl
Heat Index: 64°   Visibility: 6mi
Dew Point: 61°   Wind: 10mph
Humidity: 88%   Direction: 180°S
Pressure: 29.68"   Gusts: NA
Location:  35.02°S, 64.04°W
Report Text: SAOC 240800Z 18009KT 9999 SCT030 FEW035CB18/16 Q1005
Loading
Personal Weather Stations






























Interactive Weather Map New forecast layout! Learn more

10-Day Weather Forecast

Advertisements
Track Severe Weather on mobile